Aviation Digital Data Service (ADDS)

Output produced by METARs form (0456 UTC 16 February 2019)
found at http://www.aviationweather.gov/metar/data/
 
METAR text: PAKN 160426Z 11005KT 10SM BKN029 OVC041 01/M06 A2985 RMK AO2 T00111061
Conditions at: PAKN (KING SALMON , AK, US) observed 0426 UTC 16 February 2019
Temperature: 1.1°C (34°F)
Dewpoint: -6.1°C (21°F) [RH = 59%]
Pressure (altimeter): 29.85 inches Hg (1010.9 mb)
Winds: from the ESE (110 degrees) at 6 MPH (5 knots; 2.6 m/s)
Visibility: 10 or more miles (16+ km)
Ceiling: 2900 feet AGL
Clouds: broken clouds at 2900 feet AGL
overcast cloud deck at 4100 feet AGL
Weather: no significant weather observed at this time

METAR text: PAKN 160354Z 11005KT 10SM OVC041 01/M06 A2985 RMK AO2 SLP110 T00061061
Conditions at: PAKN (KING SALMON , AK, US) observed 0354 UTC 16 February 2019
Temperature: 0.6°C (33°F)
Dewpoint: -6.1°C (21°F) [RH = 61%]
Pressure (altimeter): 29.85 inches Hg (1010.9 mb)
[Sea-level pressure: 1011.0 mb]
Winds: from the ESE (110 degrees) at 6 MPH (5 knots; 2.6 m/s)
Visibility: 10 or more miles (16+ km)
Ceiling: 4100 feet AGL
Clouds: overcast cloud deck at 4100 feet AGL
Weather: no significant weather observed at this time

METAR text: PAKN 160254Z 09006KT 10SM BKN040 01/M07 A2985 RMK AO2 SLP110 T00061072 56008
Conditions at: PAKN (KING SALMON , AK, US) observed 0254 UTC 16 February 2019
Temperature: 0.6°C (33°F)
Dewpoint: -7.2°C (19°F) [RH = 56%]
Pressure (altimeter): 29.85 inches Hg (1010.9 mb)
[Sea-level pressure: 1011.0 mb]
Winds: from the E (90 degrees) at 7 MPH (6 knots; 3.1 m/s)
Visibility: 10 or more miles (16+ km)
Ceiling: 4000 feet AGL
Clouds: broken clouds at 4000 feet AGL
Weather: no significant weather observed at this time

METAR text: PAKN 160154Z 10006KT 10SM BKN060 OVC100 01/M08 A2986 RMK AO2 SLP113 T00061083
Conditions at: PAKN (KING SALMON , AK, US) observed 0154 UTC 16 February 2019
Temperature: 0.6°C (33°F)
Dewpoint: -8.3°C (17°F) [RH = 51%]
Pressure (altimeter): 29.86 inches Hg (1011.3 mb)
[Sea-level pressure: 1011.3 mb]
Winds: from the E (100 degrees) at 7 MPH (6 knots; 3.1 m/s)
Visibility: 10 or more miles (16+ km)
Ceiling: 6000 feet AGL
Clouds: broken clouds at 6000 feet AGL
overcast cloud deck at 10000 feet AGL
Weather: no significant weather observed at this time

METAR text: PAKN 160054Z 09008KT 10SM OVC047 01/M09 A2987 RMK AO2 SLP115 T00061089
Conditions at: PAKN (KING SALMON , AK, US) observed 0054 UTC 16 February 2019
Temperature: 0.6°C (33°F)
Dewpoint: -8.9°C (16°F) [RH = 49%]
Pressure (altimeter): 29.87 inches Hg (1011.6 mb)
[Sea-level pressure: 1011.5 mb]
Winds: from the E (90 degrees) at 9 MPH (8 knots; 4.1 m/s)
Visibility: 10 or more miles (16+ km)
Ceiling: 4700 feet AGL
Clouds: overcast cloud deck at 4700 feet AGL
Weather: no significant weather observed at this time

METAR text: PAKN 152354Z 09006KT 10SM FEW110 01/M08 A2988 RMK AO2 SLP118 T00061083 10006 21122 58016
Conditions at: PAKN (KING SALMON , AK, US) observed 2354 UTC 15 February 2019
Temperature: 0.6°C (33°F)
Dewpoint: -8.3°C (17°F) [RH = 51%]
Pressure (altimeter): 29.88 inches Hg (1011.9 mb)
[Sea-level pressure: 1011.8 mb]
Winds: from the E (90 degrees) at 7 MPH (6 knots; 3.1 m/s)
Visibility: 10 or more miles (16+ km)
Ceiling: at least 12,000 feet AGL
Clouds: few clouds at 11000 feet AGL
Weather: no significant weather observed at this time

METAR text: PAKN 152254Z 07003KT 10SM FEW120 M01/M08 A2990 RMK AO2 SLP126 T10111078
Conditions at: PAKN (KING SALMON , AK, US) observed 2254 UTC 15 February 2019
Temperature: -1.1°C (30°F)
Dewpoint: -7.8°C (18°F) [RH = 60%]
Pressure (altimeter): 29.90 inches Hg (1012.6 mb)
[Sea-level pressure: 1012.6 mb]
Winds: from the ENE (70 degrees) at 3 MPH (3 knots; 1.5 m/s)
Visibility: 10 or more miles (16+ km)
Ceiling: at least 12,000 feet AGL
Clouds: few clouds at 12000 feet AGL
Weather: no significant weather observed at this time

METAR text: PAKN 152154Z 08003KT 10SM CLR M03/M07 A2991 RMK AO2 SLP131 T10281072
Conditions at: PAKN (KING SALMON , AK, US) observed 2154 UTC 15 February 2019
Temperature: -2.8°C (27°F)
Dewpoint: -7.2°C (19°F) [RH = 72%]
Pressure (altimeter): 29.91 inches Hg (1013.0 mb)
[Sea-level pressure: 1013.1 mb]
Winds: from the E (80 degrees) at 3 MPH (3 knots; 1.5 m/s)
Visibility: 10 or more miles (16+ km)
Ceiling: at least 12,000 feet AGL
Clouds: sky clear below 12,000 feet AGL
Weather: no significant weather observed at this time

METAR text: PAKN 152054Z 05006KT 10SM CLR M03/M08 A2992 RMK AO2 SLP134 T10331078 58016
Conditions at: PAKN (KING SALMON , AK, US) observed 2054 UTC 15 February 2019
Temperature: -3.3°C (26°F)
Dewpoint: -7.8°C (18°F) [RH = 71%]
Pressure (altimeter): 29.92 inches Hg (1013.3 mb)
[Sea-level pressure: 1013.4 mb]
Winds: from the NE (50 degrees) at 7 MPH (6 knots; 3.1 m/s)
Visibility: 10 or more miles (16+ km)
Ceiling: at least 12,000 feet AGL
Clouds: sky clear below 12,000 feet AGL
Weather: no significant weather observed at this time

METAR text: PAKN 151954Z 00000KT 10SM CLR M07/M11 A2996 RMK AO2 SLP146 T10671106
Conditions at: PAKN (KING SALMON , AK, US) observed 1954 UTC 15 February 2019
Temperature: -6.7°C (20°F)
Dewpoint: -10.6°C (13°F) [RH = 74%]
Pressure (altimeter): 29.96 inches Hg (1014.6 mb)
[Sea-level pressure: 1014.6 mb]
Winds: calm
Visibility: 10 or more miles (16+ km)
Ceiling: at least 12,000 feet AGL
Clouds: sky clear below 12,000 feet AGL
Weather: no significant weather observed at this time

METAR text: PAKN 151854Z 04004KT 10SM CLR M10/M13 A2996 RMK AO2 SLP147 T11001133
Conditions at: PAKN (KING SALMON , AK, US) observed 1854 UTC 15 February 2019
Temperature: -10.0°C (14°F)
Dewpoint: -13.3°C ( 8°F) [RH = 77%]
Pressure (altimeter): 29.96 inches Hg (1014.6 mb)
[Sea-level pressure: 1014.7 mb]
Winds: from the NE (40 degrees) at 5 MPH (4 knots; 2.1 m/s)
Visibility: 10 or more miles (16+ km)
Ceiling: at least 12,000 feet AGL
Clouds: sky clear below 12,000 feet AGL
Weather: no significant weather observed at this time

METAR text: PAKN 151754Z 00000KT 10SM CLR M12/M14 A2997 RMK AO2 SLP150 I6000 T11171144 11111 21139 56013
Conditions at: PAKN (KING SALMON , AK, US) observed 1754 UTC 15 February 2019
Temperature: -11.7°C (11°F)
Dewpoint: -14.4°C ( 6°F) [RH = 80%]
Pressure (altimeter): 29.97 inches Hg (1015.0 mb)
[Sea-level pressure: 1015.0 mb]
Winds: calm
Visibility: 10 or more miles (16+ km)
Ceiling: at least 12,000 feet AGL
Clouds: sky clear below 12,000 feet AGL
Weather: no significant weather observed at this time

METAR text: PAKN 151654Z 05005KT 10SM CLR M14/M16 A2998 RMK AO2 SLP152 T11391161
Conditions at: PAKN (KING SALMON , AK, US) observed 1654 UTC 15 February 2019
Temperature: -13.9°C ( 7°F)
Dewpoint: -16.1°C ( 3°F) [RH = 83%]
Pressure (altimeter): 29.98 inches Hg (1015.3 mb)
[Sea-level pressure: 1015.2 mb]
Winds: from the NE (50 degrees) at 6 MPH (5 knots; 2.6 m/s)
Visibility: 10 or more miles (16+ km)
Ceiling: at least 12,000 feet AGL
Clouds: sky clear below 12,000 feet AGL
Weather: no significant weather observed at this time

METAR text: PAKN 151554Z 07004KT 10SM CLR M12/M15 A2999 RMK AO2 SLP156 T11171150
Conditions at: PAKN (KING SALMON , AK, US) observed 1554 UTC 15 February 2019
Temperature: -11.7°C (11°F)
Dewpoint: -15.0°C ( 5°F) [RH = 76%]
Pressure (altimeter): 29.99 inches Hg (1015.7 mb)
[Sea-level pressure: 1015.6 mb]
Winds: from the ENE (70 degrees) at 5 MPH (4 knots; 2.1 m/s)
Visibility: 10 or more miles (16+ km)
Ceiling: at least 12,000 feet AGL
Clouds: sky clear below 12,000 feet AGL
Weather: no significant weather observed at this time

METAR text: PAKN 151454Z 05007KT 10SM CLR M12/M15 A3001 RMK AO2 SLP163 I3000 T11171150 58017
Conditions at: PAKN (KING SALMON , AK, US) observed 1454 UTC 15 February 2019
Temperature: -11.7°C (11°F)
Dewpoint: -15.0°C ( 5°F) [RH = 76%]
Pressure (altimeter): 30.01 inches Hg (1016.3 mb)
[Sea-level pressure: 1016.3 mb]
Winds: from the NE (50 degrees) at 8 MPH (7 knots; 3.6 m/s)
Visibility: 10 or more miles (16+ km)
Ceiling: at least 12,000 feet AGL
Clouds: sky clear below 12,000 feet AGL
Weather: no significant weather observed at this time

METAR text: PAKN 151354Z 03007KT 10SM CLR M12/M15 A3003 RMK AO2 SLP169 T11221150
Conditions at: PAKN (KING SALMON , AK, US) observed 1354 UTC 15 February 2019
Temperature: -12.2°C (10°F)
Dewpoint: -15.0°C ( 5°F) [RH = 80%]
Pressure (altimeter): 30.03 inches Hg (1017.0 mb)
[Sea-level pressure: 1016.9 mb]
Winds: from the NNE (30 degrees) at 8 MPH (7 knots; 3.6 m/s)
Visibility: 10 or more miles (16+ km)
Ceiling: at least 12,000 feet AGL
Clouds: sky clear below 12,000 feet AGL
Weather: no significant weather observed at this time

METAR text: PAKN 151254Z 00000KT 10SM FEW190 M13/M15 A3005 RMK AO2 SLP176 I1000 T11281150
Conditions at: PAKN (KING SALMON , AK, US) observed 1254 UTC 15 February 2019
Temperature: -12.8°C ( 9°F)
Dewpoint: -15.0°C ( 5°F) [RH = 84%]
Pressure (altimeter): 30.05 inches Hg (1017.7 mb)
[Sea-level pressure: 1017.6 mb]
Winds: calm
Visibility: 10 or more miles (16+ km)
Ceiling: at least 12,000 feet AGL
Clouds: few clouds at 19000 feet AGL
Weather: no significant weather observed at this time

METAR text: PAKN 151154Z 00000KT 10SM CLR M12/M14 A3006 RMK AO2 SLP180 T11171144 11050 21128 53002
Conditions at: PAKN (KING SALMON , AK, US) observed 1154 UTC 15 February 2019
Temperature: -11.7°C (11°F)
Dewpoint: -14.4°C ( 6°F) [RH = 80%]
Pressure (altimeter): 30.06 inches Hg (1018.0 mb)
[Sea-level pressure: 1018.0 mb]
Winds: calm
Visibility: 10 or more miles (16+ km)
Ceiling: at least 12,000 feet AGL
Clouds: sky clear below 12,000 feet AGL
Weather: no significant weather observed at this time

METAR text: PAKN 151054Z 06003KT 10SM CLR M13/M15 A3005 RMK AO2 SLP177 T11281150
Conditions at: PAKN (KING SALMON , AK, US) observed 1054 UTC 15 February 2019
Temperature: -12.8°C ( 9°F)
Dewpoint: -15.0°C ( 5°F) [RH = 84%]
Pressure (altimeter): 30.05 inches Hg (1017.7 mb)
[Sea-level pressure: 1017.7 mb]
Winds: from the ENE (60 degrees) at 3 MPH (3 knots; 1.5 m/s)
Visibility: 10 or more miles (16+ km)
Ceiling: at least 12,000 feet AGL
Clouds: sky clear below 12,000 feet AGL
Weather: no significant weather observed at this time

METAR text: PAKN 150954Z 03004KT 10SM CLR M12/M13 A3006 RMK AO2 SLP179 T11171133
Conditions at: PAKN (KING SALMON , AK, US) observed 0954 UTC 15 February 2019
Temperature: -11.7°C (11°F)
Dewpoint: -13.3°C ( 8°F) [RH = 88%]
Pressure (altimeter): 30.06 inches Hg (1018.0 mb)
[Sea-level pressure: 1017.9 mb]
Winds: from the NNE (30 degrees) at 5 MPH (4 knots; 2.1 m/s)
Visibility: 10 or more miles (16+ km)
Ceiling: at least 12,000 feet AGL
Clouds: sky clear below 12,000 feet AGL
Weather: no significant weather observed at this time

METAR text: PAKN 150854Z 02004KT 10SM FEW035 M11/M13 A3005 RMK AO2 SLP178 T11061128 410331150 53008
Conditions at: PAKN (KING SALMON , AK, US) observed 0854 UTC 15 February 2019
Temperature: -10.6°C (13°F)
Dewpoint: -12.8°C ( 9°F) [RH = 84%]
Pressure (altimeter): 30.05 inches Hg (1017.7 mb)
[Sea-level pressure: 1017.8 mb]
Winds: from the NNE (20 degrees) at 5 MPH (4 knots; 2.1 m/s)
Visibility: 10 or more miles (16+ km)
Ceiling: at least 12,000 feet AGL
Clouds: few clouds at 3500 feet AGL
Weather: no significant weather observed at this time

METAR text: PAKN 150754Z 34004KT 10SM SCT035 M09/M12 A3005 RMK AO2 SLP175 T10891117
Conditions at: PAKN (KING SALMON , AK, US) observed 0754 UTC 15 February 2019
Temperature: -8.9°C (16°F)
Dewpoint: -11.7°C (11°F) [RH = 80%]
Pressure (altimeter): 30.05 inches Hg (1017.7 mb)
[Sea-level pressure: 1017.5 mb]
Winds: from the NNW (340 degrees) at 5 MPH (4 knots; 2.1 m/s)
Visibility: 10 or more miles (16+ km)
Ceiling: at least 12,000 feet AGL
Clouds: scattered clouds at 3500 feet AGL
Weather: no significant weather observed at this time

METAR text: PAKN 150654Z 00000KT 10SM BKN034 M06/M11 A3003 RMK AO2 SLP171 T10611111
Conditions at: PAKN (KING SALMON , AK, US) observed 0654 UTC 15 February 2019
Temperature: -6.1°C (21°F)
Dewpoint: -11.1°C (12°F) [RH = 68%]
Pressure (altimeter): 30.03 inches Hg (1017.0 mb)
[Sea-level pressure: 1017.1 mb]
Winds: calm
Visibility: 10 or more miles (16+ km)
Ceiling: 3400 feet AGL
Clouds: broken clouds at 3400 feet AGL
Weather: no significant weather observed at this time

METAR text: PAKN 150554Z 01003KT 10SM OVC035 M05/M11 A3003 RMK AO2 SLP170 T10501106 11033 21050 50001
Conditions at: PAKN (KING SALMON , AK, US) observed 0554 UTC 15 February 2019
Temperature: -5.0°C (23°F)
Dewpoint: -10.6°C (13°F) [RH = 65%]
Pressure (altimeter): 30.03 inches Hg (1017.0 mb)
[Sea-level pressure: 1017.0 mb]
Winds: from the N (10 degrees) at 3 MPH (3 knots; 1.5 m/s)
Visibility: 10 or more miles (16+ km)
Ceiling: 3500 feet AGL
Clouds: overcast cloud deck at 3500 feet AGL
Weather: no significant weather observed at this time

METAR text: PAKN 150454Z 00000KT 10SM OVC039 M04/M11 A3003 RMK AO2 SLP171 T10441106
Conditions at: PAKN (KING SALMON , AK, US) observed 0454 UTC 15 February 2019
Temperature: -4.4°C (24°F)
Dewpoint: -10.6°C (13°F) [RH = 62%]
Pressure (altimeter): 30.03 inches Hg (1017.0 mb)
[Sea-level pressure: 1017.1 mb]
Winds: calm
Visibility: 10 or more miles (16+ km)
Ceiling: 3900 feet AGL
Clouds: overcast cloud deck at 3900 feet AGL
Weather: no significant weather observed at this time

METAR text: PAKN 150354Z 00000KT 10SM BKN049 OVC055 M04/M11 A3003 RMK AO2 SLP169 T10391106
Conditions at: PAKN (KING SALMON , AK, US) observed 0354 UTC 15 February 2019
Temperature: -3.9°C (25°F)
Dewpoint: -10.6°C (13°F) [RH = 60%]
Pressure (altimeter): 30.03 inches Hg (1017.0 mb)
[Sea-level pressure: 1016.9 mb]
Winds: calm
Visibility: 10 or more miles (16+ km)
Ceiling: 4900 feet AGL
Clouds: broken clouds at 4900 feet AGL
overcast cloud deck at 5500 feet AGL
Weather: no significant weather observed at this time

METAR text: PAKN 150254Z 06004KT 10SM OVC055 M04/M12 A3003 RMK AO2 SLP168 T10391122 55012
Conditions at: PAKN (KING SALMON , AK, US) observed 0254 UTC 15 February 2019
Temperature: -3.9°C (25°F)
Dewpoint: -12.2°C (10°F) [RH = 52%]
Pressure (altimeter): 30.03 inches Hg (1017.0 mb)
[Sea-level pressure: 1016.8 mb]
Winds: from the ENE (60 degrees) at 5 MPH (4 knots; 2.1 m/s)
Visibility: 10 or more miles (16+ km)
Ceiling: 5500 feet AGL
Clouds: overcast cloud deck at 5500 feet AGL
Weather: no significant weather observed at this time

METAR text: PAKN 150154Z 08005KT 10SM OVC065 M03/M11 A3001 RMK AO2 PRESFR SLP163 T10331111
Conditions at: PAKN (KING SALMON , AK, US) observed 0154 UTC 15 February 2019
Temperature: -3.3°C (26°F)
Dewpoint: -11.1°C (12°F) [RH = 55%]
Pressure (altimeter): 30.01 inches Hg (1016.3 mb)
[Sea-level pressure: 1016.3 mb]
Winds: from the E (80 degrees) at 6 MPH (5 knots; 2.6 m/s)
Visibility: 10 or more miles (16+ km)
Ceiling: 6500 feet AGL
Clouds: overcast cloud deck at 6500 feet AGL
Weather: no significant weather observed at this time

METAR text: PAKN 150054Z 00000KT 10SM BKN070 M04/M13 A3003 RMK AO2 SLP171 T10441128
Conditions at: PAKN (KING SALMON , AK, US) observed 0054 UTC 15 February 2019
Temperature: -4.4°C (24°F)
Dewpoint: -12.8°C ( 9°F) [RH = 52%]
Pressure (altimeter): 30.03 inches Hg (1017.0 mb)
[Sea-level pressure: 1017.1 mb]
Winds: calm
Visibility: 10 or more miles (16+ km)
Ceiling: 7000 feet AGL
Clouds: broken clouds at 7000 feet AGL
Weather: no significant weather observed at this time

METAR text: PAKN 142354Z VRB03KT 10SM BKN090 M04/M11 A3006 RMK AO2 SLP180 T10441111 11044 21150 56028
Conditions at: PAKN (KING SALMON , AK, US) observed 2354 UTC 14 February 2019
Temperature: -4.4°C (24°F)
Dewpoint: -11.1°C (12°F) [RH = 59%]
Pressure (altimeter): 30.06 inches Hg (1018.0 mb)
[Sea-level pressure: 1018.0 mb]
Winds: variable direction winds at 3 MPH (3 knots; 1.5 m/s)
Visibility: 10 or more miles (16+ km)
Ceiling: 9000 feet AGL
Clouds: broken clouds at 9000 feet AGL
Weather: no significant weather observed at this time

METAR text: PAKN 142254Z 06006KT 10SM BKN070 OVC090 M07/M11 A3007 RMK AO2 PRESFR SLP185 T10671106
Conditions at: PAKN (KING SALMON , AK, US) observed 2254 UTC 14 February 2019
Temperature: -6.7°C (20°F)
Dewpoint: -10.6°C (13°F) [RH = 74%]
Pressure (altimeter): 30.07 inches Hg (1018.4 mb)
[Sea-level pressure: 1018.5 mb]
Winds: from the ENE (60 degrees) at 7 MPH (6 knots; 3.1 m/s)
Visibility: 10 or more miles (16+ km)
Ceiling: 7000 feet AGL
Clouds: broken clouds at 7000 feet AGL
overcast cloud deck at 9000 feet AGL
Weather: no significant weather observed at this time

METAR text: PAKN 142154Z 00000KT 10SM BKN100 M08/M12 A3011 RMK AO2 SLP198 T10831122
Conditions at: PAKN (KING SALMON , AK, US) observed 2154 UTC 14 February 2019
Temperature: -8.3°C (17°F)
Dewpoint: -12.2°C (10°F) [RH = 73%]
Pressure (altimeter): 30.11 inches Hg (1019.7 mb)
[Sea-level pressure: 1019.8 mb]
Winds: calm
Visibility: 10 or more miles (16+ km)
Ceiling: 10000 feet AGL
Clouds: broken clouds at 10000 feet AGL
Weather: no significant weather observed at this time

METAR text: PAKN 142054Z 04006KT 10SM CLR M10/M13 A3014 RMK AO2 SLP208 T11001133 56007
Conditions at: PAKN (KING SALMON , AK, US) observed 2054 UTC 14 February 2019
Temperature: -10.0°C (14°F)
Dewpoint: -13.3°C ( 8°F) [RH = 77%]
Pressure (altimeter): 30.14 inches Hg (1020.7 mb)
[Sea-level pressure: 1020.8 mb]
Winds: from the NE (40 degrees) at 7 MPH (6 knots; 3.1 m/s)
Visibility: 10 or more miles (16+ km)
Ceiling: at least 12,000 feet AGL
Clouds: sky clear below 12,000 feet AGL
Weather: no significant weather observed at this time

METAR text: PAKN 141954Z 03004KT 10SM CLR M12/M14 A3015 RMK AO2 SLP209 T11171144
Conditions at: PAKN (KING SALMON , AK, US) observed 1954 UTC 14 February 2019
Temperature: -11.7°C (11°F)
Dewpoint: -14.4°C ( 6°F) [RH = 80%]
Pressure (altimeter): 30.15 inches Hg (1021.1 mb)
[Sea-level pressure: 1020.9 mb]
Winds: from the NNE (30 degrees) at 5 MPH (4 knots; 2.1 m/s)
Visibility: 10 or more miles (16+ km)
Ceiling: at least 12,000 feet AGL
Clouds: sky clear below 12,000 feet AGL
Weather: no significant weather observed at this time

METAR text: PAKN 141854Z 29004KT 10SM CLR M14/M16 A3014 RMK AO2 SLP209 T11391161
Conditions at: PAKN (KING SALMON , AK, US) observed 1854 UTC 14 February 2019
Temperature: -13.9°C ( 7°F)
Dewpoint: -16.1°C ( 3°F) [RH = 83%]
Pressure (altimeter): 30.14 inches Hg (1020.7 mb)
[Sea-level pressure: 1020.9 mb]
Winds: from the WNW (290 degrees) at 5 MPH (4 knots; 2.1 m/s)
Visibility: 10 or more miles (16+ km)
Ceiling: at least 12,000 feet AGL
Clouds: sky clear below 12,000 feet AGL
Weather: no significant weather observed at this time

METAR text: PAKN 141754Z 03003KT 10SM CLR M15/M17 A3016 RMK AO2 SLP215 T11501172 11117 21150 58012
Conditions at: PAKN (KING SALMON , AK, US) observed 1754 UTC 14 February 2019
Temperature: -15.0°C ( 5°F)
Dewpoint: -17.2°C ( 1°F) [RH = 83%]
Pressure (altimeter): 30.16 inches Hg (1021.4 mb)
[Sea-level pressure: 1021.5 mb]
Winds: from the NNE (30 degrees) at 3 MPH (3 knots; 1.5 m/s)
Visibility: 10 or more miles (16+ km)
Ceiling: at least 12,000 feet AGL
Clouds: sky clear below 12,000 feet AGL
Weather: no significant weather observed at this time

Forecast for: PAKN (KING SALMON , AK, US)
Text: PAKN 160358Z 1604/1624 12010KT 4SM -SN BKN020 WS020/18035KT
Forecast period: 0400 to 1000 UTC 16 February 2019
Forecast type: FROM: standard forecast or significant change
Winds: from the ESE (120 degrees) at 12 MPH (10 knots; 5.1 m/s)
Visibility: 4 miles (6 km)
Ceiling: 2000 feet AGL
Clouds: broken clouds at 2000 feet AGL
Wind Shear: at 2000 feet ( 610 m) AGL, from the S (180 degrees) at 40 MPH (35 knots; 18.2 m/s)
Weather: -SN  (light snow)
Text: TEMPO 1604/1606 6SM -SN OVC035
Forecast period: 0400 to 0600 UTC 16 February 2019
Forecast type: TEMPORARY: The following changes expected for less than half the time period
Visibility: 6 miles (10 km)
Ceiling: 3500 feet AGL
Clouds: overcast cloud deck at 3500 feet AGL
Weather: -SN  (light snow)
Text: FM161000 VRB06KT 2SM -SN BR OVC005
Forecast period: 1000 UTC 16 February 2019 to 0000 UTC 17 February 2019
Forecast type: FROM: standard forecast or significant change
Winds: variable direction winds at 7 MPH (6 knots; 3.1 m/s)
Visibility: 2.00 miles (3.22 km)
Ceiling: 500 feet AGL
Clouds: overcast cloud deck at 500 feet AGL
Weather: -SN BR  (light snow, mist)